createdAt,value
2023-09-08T00:02:54.317Z,101785.81
2023-09-08T00:05:52.199Z,101784.45
2023-09-08T00:08:38.161Z,101786.56
2023-09-08T00:11:08.460Z,101780.77
2023-09-08T00:13:51.469Z,101779.98
2023-09-08T00:16:22.763Z,101777.20
2023-09-08T00:18:59.580Z,101771.11
2023-09-08T00:21:30.950Z,101773.88
2023-09-08T00:24:22.224Z,101772.27
2023-09-08T00:26:51.247Z,101772.31
2023-09-08T00:30:10.593Z,101772.87
2023-09-08T00:33:43.008Z,101775.47
2023-09-08T00:36:54.949Z,101771.21
2023-09-08T00:40:27.146Z,101771.33
2023-09-08T00:43:11.642Z,101765.94
2023-09-08T00:46:00.470Z,101765.35
2023-09-08T00:48:33.980Z,101764.94
2023-09-08T00:51:39.500Z,101761.30
2023-09-08T00:54:31.760Z,101763.95
2023-09-08T00:57:23.502Z,101761.50
2023-09-08T01:01:02.915Z,101759.66
2023-09-08T01:04:34.720Z,101757.44
2023-09-08T01:08:10.190Z,101761.61
2023-09-08T01:11:39.481Z,101761.11
2023-09-08T01:15:05.890Z,101756.38
2023-09-08T01:18:07.787Z,101760.11
2023-09-08T01:22:24.123Z,101748.57
2023-09-08T01:26:03.221Z,101754.02
2023-09-08T01:29:03.726Z,101753.77
2023-09-08T01:31:53.275Z,101754.85
2023-09-08T01:34:53.666Z,101746.52
2023-09-08T01:38:12.986Z,101745.27
2023-09-08T01:41:03.589Z,101745.42
2023-09-08T01:43:59.600Z,101744.56
2023-09-08T01:47:43.496Z,101747.05
2023-09-08T01:50:40.399Z,101756.70
2023-09-08T01:54:02.057Z,101759.88
2023-09-08T01:57:42.377Z,101762.61
2023-09-08T02:00:12.668Z,101760.05
2023-09-08T02:02:44.106Z,101760.00
2023-09-08T02:05:13.108Z,101762.27
2023-09-08T02:07:43.848Z,101763.24
2023-09-08T02:10:12.718Z,101763.27
2023-09-08T02:13:16.694Z,101761.42
2023-09-08T02:16:54.700Z,101754.84
2023-09-08T02:19:54.951Z,101760.10
2023-09-08T02:23:10.679Z,101752.10
2023-09-08T02:26:37.441Z,101754.31
2023-09-08T02:29:38.806Z,101750.05
2023-09-08T02:32:15.196Z,101743.94
2023-09-08T02:35:11.185Z,101745.42
2023-09-08T02:37:47.668Z,101746.96
2023-09-08T02:40:21.823Z,101743.38
2023-09-08T02:43:16.200Z,101741.70
2023-09-08T02:45:50.817Z,101743.91
2023-09-08T02:48:21.037Z,101745.77
2023-09-08T02:50:52.127Z,101746.98
2023-09-08T02:53:27.374Z,101744.68
2023-09-08T02:56:33.287Z,101744.92
2023-09-08T02:59:18.043Z,101747.45
2023-09-08T03:02:13.586Z,101746.10
2023-09-08T03:04:44.773Z,101742.27
2023-09-08T03:07:19.207Z,101741.73
2023-09-08T03:09:53.569Z,101741.72
2023-09-08T03:12:33.315Z,101740.64
2023-09-08T03:15:04.042Z,101739.67
2023-09-08T03:17:36.157Z,101739.27
2023-09-08T03:20:22.221Z,101743.64
2023-09-08T03:23:01.749Z,101743.05
2023-09-08T03:25:37.685Z,101741.84
2023-09-08T03:28:11.124Z,101742.23
2023-09-08T03:30:42.435Z,101742.19
2023-09-08T03:33:11.897Z,101743.43
2023-09-08T03:35:44.190Z,101740.61
2023-09-08T03:38:15.644Z,101740.80
2023-09-08T03:40:50.154Z,101737.77
2023-09-08T03:43:33.379Z,101734.73
2023-09-08T03:46:26.165Z,101737.91
2023-09-08T03:49:27.637Z,101739.08
2023-09-08T03:52:10.658Z,101738.22
2023-09-08T03:55:03.506Z,101738.15
2023-09-08T03:58:01.900Z,101733.68
2023-09-08T04:01:22.246Z,101735.50
2023-09-08T04:04:39.908Z,101736.14
2023-09-08T04:07:59.609Z,101730.16
2023-09-08T04:11:41.720Z,101732.67
2023-09-08T04:14:53.322Z,101732.08
2023-09-08T04:17:49.547Z,101731.23
2023-09-08T04:20:57.415Z,101738.02
2023-09-08T04:24:20.250Z,101738.36
2023-09-08T04:27:15.720Z,101743.10
2023-09-08T04:30:00.712Z,101744.27
2023-09-08T04:32:32.262Z,101747.80
2023-09-08T04:35:10.795Z,101752.77
2023-09-08T04:37:42.865Z,101752.16
2023-09-08T04:40:38.128Z,101753.88
2023-09-08T04:43:09.500Z,101752.34
2023-09-08T04:45:41.010Z,101754.14
2023-09-08T04:48:20.987Z,101757.17
2023-09-08T04:51:14.930Z,101757.08
2023-09-08T04:53:47.562Z,101760.54
2023-09-08T04:56:41.763Z,101761.17
2023-09-08T05:00:03.726Z,101757.11
2023-09-08T05:03:09.403Z,101755.58
2023-09-08T05:06:02.589Z,101755.14
2023-09-08T05:09:29.856Z,101755.30
2023-09-08T05:12:50.843Z,101749.75
2023-09-08T05:15:45.742Z,101753.59
2023-09-08T05:18:39.242Z,101747.95
2023-09-08T05:21:47.652Z,101746.63
2023-09-08T05:25:17.897Z,101750.11
2023-09-08T05:28:07.094Z,101743.80
2023-09-08T05:31:28.560Z,101746.48
2023-09-08T05:33:57.590Z,101744.55
2023-09-08T05:36:30.685Z,101743.58
2023-09-08T05:39:11.565Z,101747.52
2023-09-08T05:41:58.818Z,101746.59
2023-09-08T05:45:07.676Z,101750.75
2023-09-08T05:48:36.397Z,101748.00
2023-09-08T05:51:29.352Z,101745.59
2023-09-08T05:54:53.891Z,101750.46
2023-09-08T05:58:12.232Z,101749.79
2023-09-08T06:01:15.335Z,101749.88
2023-09-08T06:04:35.015Z,101746.25
2023-09-08T06:07:39.086Z,101748.33
2023-09-08T06:10:37.131Z,101749.45
2023-09-08T06:14:10.984Z,101751.10
2023-09-08T06:17:36.786Z,101750.11
2023-09-08T06:20:37.986Z,101748.02
2023-09-08T06:24:27.728Z,101746.52
2023-09-08T06:27:29.476Z,101746.54
2023-09-08T06:30:39.161Z,101744.04
2023-09-08T06:34:04.358Z,101742.06
2023-09-08T06:36:39.591Z,101745.83
2023-09-08T06:39:27.171Z,101744.90
2023-09-08T06:42:20.567Z,101742.98
2023-09-08T06:45:06.660Z,101743.43
2023-09-08T06:47:59.916Z,101744.10
2023-09-08T06:50:42.976Z,101745.55
2023-09-08T06:53:29.706Z,101744.26
2023-09-08T06:56:12.037Z,101740.59
2023-09-08T06:58:43.222Z,101736.21
2023-09-08T07:01:12.176Z,101737.64
2023-09-08T07:03:46.768Z,101734.11
2023-09-08T07:06:38.275Z,101732.92
2023-09-08T07:09:09.809Z,101730.00
2023-09-08T07:11:39.193Z,101734.02
2023-09-08T07:14:40.923Z,101729.13
2023-09-08T07:17:12.038Z,101732.55
2023-09-08T07:20:01.234Z,101735.75
2023-09-08T07:22:39.224Z,101737.55
2023-09-08T07:25:17.153Z,101731.37
2023-09-08T07:28:50.766Z,101732.08
2023-09-08T07:32:26.511Z,101731.46
2023-09-08T07:36:19.248Z,101726.83
2023-09-08T07:40:08.619Z,101727.39
2023-09-08T07:43:34.379Z,101732.23
2023-09-08T07:46:12.545Z,101729.66
2023-09-08T07:48:49.184Z,101731.60
2023-09-08T07:51:25.361Z,101730.33
2023-09-08T07:54:58.846Z,101730.70
2023-09-08T07:58:48.171Z,101727.51
2023-09-08T08:02:37.596Z,101726.20
2023-09-08T08:06:28.517Z,101723.32
2023-09-08T08:10:17.873Z,101721.93
2023-09-08T08:13:12.550Z,101717.59
2023-09-08T08:16:10.240Z,101709.91
2023-09-08T08:18:39.918Z,101702.42
2023-09-08T08:21:09.447Z,101706.27
2023-09-08T08:23:58.247Z,101701.65
2023-09-08T08:27:11.073Z,101699.09
2023-09-08T08:30:59.890Z,101701.80
2023-09-08T08:33:46.691Z,101701.10
2023-09-08T08:36:58.736Z,101699.30
2023-09-08T08:40:36.664Z,101691.34
2023-09-08T08:44:19.507Z,101691.73
2023-09-08T08:47:59.920Z,101690.36
2023-09-08T08:51:49.273Z,101686.33
2023-09-08T08:55:38.684Z,101679.44
2023-09-08T08:58:58.314Z,101679.05
2023-09-08T09:02:02.702Z,101680.14
2023-09-08T09:05:46.639Z,101678.13
2023-09-08T09:08:51.144Z,101674.48
2023-09-08T09:11:46.838Z,101672.45
2023-09-08T09:15:05.983Z,101670.35
2023-09-08T09:18:07.300Z,101669.42
2023-09-08T09:21:27.378Z,101666.27
2023-09-08T09:25:01.409Z,101666.52
2023-09-08T09:27:50.094Z,101660.83
2023-09-08T09:31:23.561Z,101660.36
2023-09-08T09:35:12.922Z,101658.05
2023-09-08T09:38:28.800Z,101658.00
2023-09-08T09:41:18.559Z,101652.98
2023-09-08T09:44:57.719Z,101648.48
2023-09-08T09:48:39.620Z,101645.75
2023-09-08T09:52:18.203Z,101641.29
2023-09-08T09:55:53.243Z,101637.64
2023-09-08T09:59:43.567Z,101631.38
2023-09-08T10:03:32.942Z,101632.89
2023-09-08T10:07:08.689Z,101637.20
2023-09-08T10:10:18.972Z,101630.44
2023-09-08T10:17:33.238Z,101623.06
2023-09-08T10:20:55.013Z,101625.05
2023-09-08T10:24:47.204Z,101619.11
2023-09-08T10:28:25.423Z,101620.01
2023-09-08T10:32:15.197Z,101624.55
2023-09-08T10:36:04.414Z,101616.72
2023-09-08T10:40:08.666Z,101618.36
2023-09-08T10:44:01.784Z,101621.20
2023-09-08T10:47:39.500Z,101612.37
2023-09-08T10:51:11.227Z,101616.43
2023-09-08T10:55:01.740Z,101611.99
2023-09-08T10:58:36.974Z,101607.05
2023-09-08T11:01:35.325Z,101601.23
2023-09-08T11:04:28.327Z,101599.83
2023-09-08T11:07:44.292Z,101595.45
2023-09-08T11:11:17.114Z,101593.77
2023-09-08T11:14:46.186Z,101594.23
2023-09-08T11:18:27.194Z,101583.19
2023-09-08T11:21:58.038Z,101584.35
2023-09-08T11:25:33.590Z,101583.98
2023-09-08T11:29:24.117Z,101576.60
2023-09-08T11:33:14.814Z,101573.16
2023-09-08T11:37:03.998Z,101566.59
2023-09-08T11:40:48.247Z,101568.46
2023-09-08T11:44:37.640Z,101566.52
2023-09-08T11:48:27.068Z,101557.96
2023-09-08T11:52:16.318Z,101557.77
2023-09-08T11:55:39.107Z,101562.84
2023-09-08T11:59:27.498Z,101556.85
2023-09-08T12:02:44.870Z,101552.94
2023-09-08T12:06:23.036Z,101553.09
2023-09-08T12:09:42.756Z,101551.77
2023-09-08T12:13:32.353Z,101547.27
2023-09-08T12:17:16.535Z,101543.05
2023-09-08T12:21:05.990Z,101535.31
2023-09-08T12:24:44.031Z,101537.52
2023-09-08T12:28:34.788Z,101535.40
2023-09-08T12:32:19.000Z,101530.13
2023-09-08T12:35:52.877Z,101531.13
2023-09-08T12:39:05.849Z,101523.69
2023-09-08T12:42:18.722Z,101521.36
2023-09-08T12:45:58.180Z,101524.59
2023-09-08T12:49:31.211Z,101519.87
2023-09-08T12:53:21.817Z,101519.23
2023-09-08T12:57:11.848Z,101515.25
2023-09-08T13:01:01.413Z,101510.44
2023-09-08T13:04:51.313Z,101505.50
2023-09-08T13:08:29.642Z,101502.14
2023-09-08T13:12:20.315Z,101500.56
2023-09-08T13:16:11.836Z,101493.09
2023-09-08T13:20:01.352Z,101490.73
2023-09-08T13:23:33.979Z,101486.67
2023-09-08T13:27:15.891Z,101485.74
2023-09-08T13:31:11.753Z,101481.61
2023-09-08T13:35:01.422Z,101477.30
2023-09-08T13:38:53.728Z,101471.19
2023-09-08T13:42:48.948Z,101471.64
2023-09-08T13:46:38.660Z,101467.20
2023-09-08T13:50:28.186Z,101462.59
2023-09-08T13:54:19.344Z,101458.60
2023-09-08T13:58:09.946Z,101452.13
2023-09-08T14:05:56.054Z,101449.56
2023-09-08T14:17:40.636Z,101438.64
2023-09-08T14:21:51.926Z,101432.35
2023-09-08T14:25:44.781Z,101429.11
2023-09-08T14:29:40.281Z,101421.66
2023-09-08T14:33:31.420Z,101421.16
2023-09-08T14:37:04.552Z,101424.68
2023-09-08T14:40:48.096Z,101422.88
2023-09-08T14:44:37.380Z,101423.16
2023-09-08T14:48:38.122Z,101423.30
2023-09-08T14:52:32.025Z,101421.16
2023-09-08T14:56:22.015Z,101419.73
2023-09-08T15:00:14.185Z,101414.81
2023-09-08T15:04:06.808Z,101415.36
2023-09-08T15:08:01.965Z,101409.92
2023-09-08T15:12:38.622Z,101406.53
2023-09-08T15:16:29.254Z,101404.77
2023-09-08T15:20:26.801Z,101399.18
2023-09-08T15:24:39.422Z,101396.02
2023-09-08T15:28:48.360Z,101397.66
2023-09-08T15:32:54.817Z,101395.78
2023-09-08T15:37:02.800Z,101390.83
2023-09-08T15:41:11.616Z,101389.35
2023-09-08T15:45:18.615Z,101387.20
2023-09-08T15:49:09.177Z,101384.34
2023-09-08T15:53:05.736Z,101381.70
2023-09-08T15:56:57.366Z,101382.11
2023-09-08T16:01:10.283Z,101376.44
2023-09-08T16:05:20.701Z,101373.77
2023-09-08T16:09:34.467Z,101375.19
2023-09-08T16:13:43.748Z,101377.27
2023-09-08T16:17:37.572Z,101374.00
2023-09-08T16:21:46.970Z,101374.52
2023-09-08T16:25:36.146Z,101370.69
2023-09-08T16:29:44.287Z,101371.45
2023-09-08T16:33:53.133Z,101366.64
2023-09-08T16:38:03.756Z,101366.92
2023-09-08T16:42:04.380Z,101360.98
2023-09-08T16:46:14.756Z,101360.48
2023-09-08T16:50:23.253Z,101361.91
2023-09-08T16:54:51.656Z,101368.86
2023-09-08T16:59:03.834Z,101370.25
2023-09-08T17:03:32.476Z,101370.92
2023-09-08T17:07:52.270Z,101371.58
2023-09-08T17:12:20.600Z,101372.18
2023-09-08T17:16:47.405Z,101370.52
2023-09-08T17:21:24.292Z,101378.32
2023-09-08T17:25:33.916Z,101379.79
2023-09-08T17:29:59.734Z,101380.33
2023-09-08T17:34:09.754Z,101381.86
2023-09-08T17:38:36.425Z,101377.48
2023-09-08T17:42:47.279Z,101377.55
2023-09-08T17:47:16.314Z,101377.12
2023-09-08T17:51:45.415Z,101377.42
2023-09-08T17:55:54.465Z,101376.42
2023-09-08T18:00:24.269Z,101380.30
2023-09-08T18:04:34.131Z,101380.16
2023-09-08T18:09:03.513Z,101380.61
2023-09-08T18:13:32.017Z,101381.92
2023-09-08T18:18:00.037Z,101385.70
2023-09-08T18:22:28.679Z,101385.17
2023-09-08T18:26:56.712Z,101386.23
2023-09-08T18:31:07.958Z,101383.55
2023-09-08T18:35:36.259Z,101390.93
2023-09-08T18:40:04.338Z,101394.61
2023-09-08T18:44:33.340Z,101396.59
2023-09-08T18:49:05.040Z,101392.95
2023-09-08T18:53:37.860Z,101393.16
2023-09-08T18:58:06.694Z,101397.09
2023-09-08T19:02:37.098Z,101390.23
2023-09-08T19:07:06.371Z,101385.63
2023-09-08T19:11:38.223Z,101384.55
2023-09-08T19:16:06.632Z,101385.88
2023-09-08T19:20:36.211Z,101387.42
2023-09-08T19:25:05.425Z,101391.42
2023-09-08T19:29:35.434Z,101392.03
2023-09-08T19:34:06.487Z,101386.88
2023-09-08T19:38:35.589Z,101388.52
2023-09-08T19:42:46.772Z,101391.35
2023-09-08T19:47:15.734Z,101384.55
2023-09-08T19:51:47.534Z,101385.61
2023-09-08T19:56:19.279Z,101388.77
2023-09-08T20:00:48.397Z,101389.61
2023-09-08T20:05:17.792Z,101387.23
2023-09-08T20:09:46.155Z,101386.83
2023-09-08T20:14:15.208Z,101384.58
2023-09-08T20:18:48.944Z,101386.94
2023-09-08T20:23:17.534Z,101387.58
2023-09-08T20:27:48.505Z,101387.17
2023-09-08T20:32:15.743Z,101391.86
2023-09-08T20:36:44.979Z,101389.20
2023-09-08T20:41:14.462Z,101392.55
2023-09-08T20:45:44.596Z,101393.90
2023-09-08T20:50:15.586Z,101394.73
2023-09-08T20:54:45.856Z,101401.56
2023-09-08T20:59:16.196Z,101403.89
2023-09-08T21:03:44.780Z,101401.74
2023-09-08T21:08:13.255Z,101396.42
2023-09-08T21:12:41.826Z,101394.17
2023-09-08T21:17:10.897Z,101387.17
2023-09-08T21:21:39.732Z,101394.50
2023-09-08T21:26:08.405Z,101395.46
2023-09-08T21:42:57.989Z,101377.84
2023-09-08T21:46:09.917Z,101377.86
2023-09-08T21:50:01.371Z,101377.41
2023-09-08T21:53:31.330Z,101378.43
2023-09-08T21:56:34.834Z,101380.28
2023-09-08T21:59:45.708Z,101378.77
2023-09-08T22:03:08.203Z,101379.47
2023-09-08T22:06:34.869Z,101379.83
2023-09-08T22:10:08.993Z,101382.86
2023-09-08T22:13:23.117Z,101383.60
2023-09-08T22:16:19.754Z,101383.73
2023-09-08T22:19:55.304Z,101382.58
2023-09-08T22:23:37.196Z,101385.92
2023-09-08T22:27:20.294Z,101384.98
2023-09-08T22:31:02.518Z,101384.41
2023-09-08T22:34:53.629Z,101383.48
2023-09-08T22:38:33.415Z,101380.92
2023-09-08T22:42:26.587Z,101379.34
2023-09-08T22:45:53.700Z,101378.34
2023-09-08T22:49:22.476Z,101379.23
2023-09-08T22:53:04.944Z,101377.83
2023-09-08T22:56:55.107Z,101379.91
2023-09-08T23:00:47.552Z,101383.71
2023-09-08T23:04:34.098Z,101381.03
2023-09-08T23:08:24.744Z,101385.20
2023-09-08T23:12:20.041Z,101380.30
2023-09-08T23:16:13.911Z,101379.60
2023-09-08T23:19:58.049Z,101385.70
2023-09-08T23:23:12.813Z,101389.46
2023-09-08T23:26:17.205Z,101387.96
2023-09-08T23:30:00.104Z,101389.55
2023-09-08T23:33:02.365Z,101380.47
2023-09-08T23:36:31.841Z,101373.54
2023-09-08T23:40:16.010Z,101377.77
2023-09-08T23:44:06.992Z,101375.91
2023-09-08T23:47:56.653Z,101381.38
2023-09-08T23:51:49.832Z,101381.04
2023-09-08T23:55:40.776Z,101381.83
2023-09-08T23:59:15.955Z,101374.58
